sensor_id;sensor_type;location;lat;lon;timestamp;temperature;humidity
11772;DHT22;12556;55.748;13.194;2023-06-24T00:02:12;15.20;99.90
11772;DHT22;12556;55.748;13.194;2023-06-24T00:04:40;15.20;99.90
11772;DHT22;12556;55.748;13.194;2023-06-24T00:07:07;15.20;99.90
11772;DHT22;12556;55.748;13.194;2023-06-24T00:09:34;15.20;99.90
11772;DHT22;12556;55.748;13.194;2023-06-24T00:12:01;15.10;99.90
11772;DHT22;12556;55.748;13.194;2023-06-24T00:14:28;15.10;99.90
11772;DHT22;12556;55.748;13.194;2023-06-24T00:16:55;15.10;99.90
11772;DHT22;12556;55.748;13.194;2023-06-24T00:19:24;15.10;99.90
11772;DHT22;12556;55.748;13.194;2023-06-24T00:21:53;15.00;99.90
11772;DHT22;12556;55.748;13.194;2023-06-24T00:24:21;15.10;99.90
11772;DHT22;12556;55.748;13.194;2023-06-24T00:26:51;15.10;99.90
11772;DHT22;12556;55.748;13.194;2023-06-24T00:29:18;15.10;99.90
11772;DHT22;12556;55.748;13.194;2023-06-24T00:31:45;15.00;99.90
11772;DHT22;12556;55.748;13.194;2023-06-24T00:34:12;15.00;99.90
11772;DHT22;12556;55.748;13.194;2023-06-24T00:36:39;15.10;99.90
11772;DHT22;12556;55.748;13.194;2023-06-24T00:39:07;15.00;99.90
11772;DHT22;12556;55.748;13.194;2023-06-24T00:41:36;15.00;99.90
11772;DHT22;12556;55.748;13.194;2023-06-24T00:44:03;15.00;99.90
11772;DHT22;12556;55.748;13.194;2023-06-24T00:46:30;15.00;99.90
11772;DHT22;12556;55.748;13.194;2023-06-24T00:48:59;14.90;99.90
11772;DHT22;12556;55.748;13.194;2023-06-24T00:51:26;14.90;99.90
11772;DHT22;12556;55.748;13.194;2023-06-24T00:53:56;14.90;99.90
11772;DHT22;12556;55.748;13.194;2023-06-24T00:56:27;14.90;99.90
11772;DHT22;12556;55.748;13.194;2023-06-24T00:58:57;14.90;99.90
11772;DHT22;12556;55.748;13.194;2023-06-24T01:01:28;14.90;99.90
11772;DHT22;12556;55.748;13.194;2023-06-24T01:03:57;14.90;99.90
11772;DHT22;12556;55.748;13.194;2023-06-24T01:06:25;14.90;99.90
11772;DHT22;12556;55.748;13.194;2023-06-24T01:08:54;14.90;99.90
11772;DHT22;12556;55.748;13.194;2023-06-24T01:11:23;14.90;99.90
11772;DHT22;12556;55.748;13.194;2023-06-24T01:13:50;14.90;99.90
11772;DHT22;12556;55.748;13.194;2023-06-24T01:16:24;14.90;99.90
11772;DHT22;12556;55.748;13.194;2023-06-24T01:18:55;14.90;99.90
11772;DHT22;12556;55.748;13.194;2023-06-24T01:21:33;14.90;99.90
11772;DHT22;12556;55.748;13.194;2023-06-24T01:24:13;14.80;99.90
11772;DHT22;12556;55.748;13.194;2023-06-24T01:29:55;14.80;99.90
11772;DHT22;12556;55.748;13.194;2023-06-24T01:32:31;14.80;99.90
11772;DHT22;12556;55.748;13.194;2023-06-24T01:35:04;14.90;99.90
11772;DHT22;12556;55.748;13.194;2023-06-24T01:37:35;14.80;99.90
11772;DHT22;12556;55.748;13.194;2023-06-24T01:40:10;14.80;99.90
11772;DHT22;12556;55.748;13.194;2023-06-24T01:42:39;14.80;99.90
11772;DHT22;12556;55.748;13.194;2023-06-24T01:45:08;14.80;99.90
11772;DHT22;12556;55.748;13.194;2023-06-24T01:47:38;14.80;99.90
11772;DHT22;12556;55.748;13.194;2023-06-24T01:50:10;14.80;99.90
11772;DHT22;12556;55.748;13.194;2023-06-24T01:52:39;14.80;99.90
11772;DHT22;12556;55.748;13.194;2023-06-24T01:55:10;14.70;99.90
11772;DHT22;12556;55.748;13.194;2023-06-24T01:57:40;14.80;99.90
11772;DHT22;12556;55.748;13.194;2023-06-24T02:00:09;14.70;99.90
11772;DHT22;12556;55.748;13.194;2023-06-24T02:02:39;14.70;99.90
11772;DHT22;12556;55.748;13.194;2023-06-24T02:05:08;14.80;99.90
11772;DHT22;12556;55.748;13.194;2023-06-24T02:07:37;14.80;99.90
11772;DHT22;12556;55.748;13.194;2023-06-24T02:10:06;14.70;99.90
11772;DHT22;12556;55.748;13.194;2023-06-24T02:12:34;14.70;99.90
11772;DHT22;12556;55.748;13.194;2023-06-24T02:15:02;14.70;99.90
11772;DHT22;12556;55.748;13.194;2023-06-24T02:17:30;14.70;99.90
11772;DHT22;12556;55.748;13.194;2023-06-24T02:19:59;14.70;99.90
11772;DHT22;12556;55.748;13.194;2023-06-24T02:22:27;14.80;99.90
11772;DHT22;12556;55.748;13.194;2023-06-24T02:24:55;14.70;99.90
11772;DHT22;12556;55.748;13.194;2023-06-24T02:27:23;14.70;99.90
11772;DHT22;12556;55.748;13.194;2023-06-24T02:29:51;14.80;99.90
11772;DHT22;12556;55.748;13.194;2023-06-24T02:32:18;14.80;99.90
11772;DHT22;12556;55.748;13.194;2023-06-24T02:34:46;14.80;99.90
11772;DHT22;12556;55.748;13.194;2023-06-24T02:37:14;14.70;99.90
11772;DHT22;12556;55.748;13.194;2023-06-24T02:39:41;14.70;99.90
11772;DHT22;12556;55.748;13.194;2023-06-24T02:42:10;14.80;99.90
11772;DHT22;12556;55.748;13.194;2023-06-24T02:44:38;14.80;99.90
11772;DHT22;12556;55.748;13.194;2023-06-24T02:47:09;14.90;99.90
11772;DHT22;12556;55.748;13.194;2023-06-24T02:49:37;14.80;99.90
11772;DHT22;12556;55.748;13.194;2023-06-24T02:52:06;14.90;99.90
11772;DHT22;12556;55.748;13.194;2023-06-24T02:54:35;14.90;99.90
11772;DHT22;12556;55.748;13.194;2023-06-24T02:57:05;14.90;99.90
11772;DHT22;12556;55.748;13.194;2023-06-24T02:59:33;14.90;99.90
11772;DHT22;12556;55.748;13.194;2023-06-24T03:02:00;14.90;99.90
11772;DHT22;12556;55.748;13.194;2023-06-24T03:04:28;15.00;99.90
11772;DHT22;12556;55.748;13.194;2023-06-24T03:06:55;14.90;99.90
11772;DHT22;12556;55.748;13.194;2023-06-24T03:09:23;14.90;99.90
11772;DHT22;12556;55.748;13.194;2023-06-24T03:11:51;15.00;99.90
11772;DHT22;12556;55.748;13.194;2023-06-24T03:14:19;15.00;99.90
11772;DHT22;12556;55.748;13.194;2023-06-24T03:16:46;15.00;99.90
11772;DHT22;12556;55.748;13.194;2023-06-24T03:19:12;14.90;99.90
11772;DHT22;12556;55.748;13.194;2023-06-24T03:21:40;15.00;99.90
11772;DHT22;12556;55.748;13.194;2023-06-24T03:24:06;14.90;99.90
11772;DHT22;12556;55.748;13.194;2023-06-24T03:26:34;14.90;99.90
11772;DHT22;12556;55.748;13.194;2023-06-24T03:29:02;15.00;99.90
11772;DHT22;12556;55.748;13.194;2023-06-24T03:31:30;14.90;99.90
11772;DHT22;12556;55.748;13.194;2023-06-24T03:33:57;14.90;99.90
11772;DHT22;12556;55.748;13.194;2023-06-24T03:36:24;15.00;99.90
11772;DHT22;12556;55.748;13.194;2023-06-24T03:38:51;15.00;99.90
11772;DHT22;12556;55.748;13.194;2023-06-24T03:41:18;15.00;99.90
11772;DHT22;12556;55.748;13.194;2023-06-24T03:43:46;15.00;99.90
11772;DHT22;12556;55.748;13.194;2023-06-24T03:46:14;15.10;99.90
11772;DHT22;12556;55.748;13.194;2023-06-24T03:48:41;15.10;99.90
11772;DHT22;12556;55.748;13.194;2023-06-24T03:51:08;15.10;99.90
11772;DHT22;12556;55.748;13.194;2023-06-24T03:53:35;15.10;99.90
11772;DHT22;12556;55.748;13.194;2023-06-24T03:56:02;15.10;99.90
11772;DHT22;12556;55.748;13.194;2023-06-24T03:58:29;15.20;99.90
11772;DHT22;12556;55.748;13.194;2023-06-24T04:00:56;15.10;99.90
11772;DHT22;12556;55.748;13.194;2023-06-24T04:03:26;15.30;99.90
11772;DHT22;12556;55.748;13.194;2023-06-24T04:05:54;15.30;99.90
11772;DHT22;12556;55.748;13.194;2023-06-24T04:08:21;15.50;99.90
11772;DHT22;12556;55.748;13.194;2023-06-24T04:10:48;15.40;99.90
11772;DHT22;12556;55.748;13.194;2023-06-24T04:13:14;15.50;99.90
11772;DHT22;12556;55.748;13.194;2023-06-24T04:15:41;15.50;99.90
11772;DHT22;12556;55.748;13.194;2023-06-24T04:18:08;15.60;99.90
11772;DHT22;12556;55.748;13.194;2023-06-24T04:20:37;15.60;99.90
11772;DHT22;12556;55.748;13.194;2023-06-24T04:23:04;15.50;99.90
11772;DHT22;12556;55.748;13.194;2023-06-24T04:25:31;15.60;99.90
11772;DHT22;12556;55.748;13.194;2023-06-24T04:27:58;15.60;99.90
11772;DHT22;12556;55.748;13.194;2023-06-24T04:30:25;15.60;99.90
11772;DHT22;12556;55.748;13.194;2023-06-24T04:32:52;15.60;99.90
11772;DHT22;12556;55.748;13.194;2023-06-24T04:35:18;15.70;99.90
11772;DHT22;12556;55.748;13.194;2023-06-24T04:37:47;15.80;99.90
11772;DHT22;12556;55.748;13.194;2023-06-24T04:40:16;16.00;99.90
11772;DHT22;12556;55.748;13.194;2023-06-24T04:42:43;16.00;99.90
11772;DHT22;12556;55.748;13.194;2023-06-24T04:45:10;16.10;99.90
11772;DHT22;12556;55.748;13.194;2023-06-24T04:47:37;16.10;99.90
11772;DHT22;12556;55.748;13.194;2023-06-24T04:50:05;16.10;99.90
11772;DHT22;12556;55.748;13.194;2023-06-24T04:52:32;16.10;99.90
11772;DHT22;12556;55.748;13.194;2023-06-24T04:55:00;16.10;99.90
11772;DHT22;12556;55.748;13.194;2023-06-24T04:57:28;16.10;99.90
11772;DHT22;12556;55.748;13.194;2023-06-24T04:59:56;16.10;99.90
11772;DHT22;12556;55.748;13.194;2023-06-24T05:02:23;16.10;99.90
11772;DHT22;12556;55.748;13.194;2023-06-24T05:04:52;16.10;99.90
11772;DHT22;12556;55.748;13.194;2023-06-24T05:07:19;16.10;99.90
11772;DHT22;12556;55.748;13.194;2023-06-24T05:09:47;16.10;99.90
11772;DHT22;12556;55.748;13.194;2023-06-24T05:12:16;16.20;99.90
11772;DHT22;12556;55.748;13.194;2023-06-24T05:14:42;16.10;99.90
11772;DHT22;12556;55.748;13.194;2023-06-24T05:17:12;16.20;99.90
11772;DHT22;12556;55.748;13.194;2023-06-24T05:19:39;16.20;99.90
11772;DHT22;12556;55.748;13.194;2023-06-24T05:22:06;16.30;99.90
11772;DHT22;12556;55.748;13.194;2023-06-24T05:24:33;16.30;99.90
11772;DHT22;12556;55.748;13.194;2023-06-24T05:27:04;16.40;99.90
11772;DHT22;12556;55.748;13.194;2023-06-24T05:29:33;16.50;99.90
11772;DHT22;12556;55.748;13.194;2023-06-24T05:32:00;16.60;99.90
11772;DHT22;12556;55.748;13.194;2023-06-24T05:34:29;16.70;99.90
11772;DHT22;12556;55.748;13.194;2023-06-24T05:36:56;16.80;99.90
11772;DHT22;12556;55.748;13.194;2023-06-24T05:39:24;16.90;99.90
11772;DHT22;12556;55.748;13.194;2023-06-24T05:41:51;16.90;99.90
11772;DHT22;12556;55.748;13.194;2023-06-24T05:44:18;17.00;99.90
11772;DHT22;12556;55.748;13.194;2023-06-24T05:46:46;17.10;99.90
11772;DHT22;12556;55.748;13.194;2023-06-24T05:49:13;17.10;99.90
11772;DHT22;12556;55.748;13.194;2023-06-24T05:51:40;17.20;99.90
11772;DHT22;12556;55.748;13.194;2023-06-24T05:54:07;17.30;99.90
11772;DHT22;12556;55.748;13.194;2023-06-24T05:56:34;17.30;99.90
11772;DHT22;12556;55.748;13.194;2023-06-24T05:59:01;17.40;99.90
11772;DHT22;12556;55.748;13.194;2023-06-24T06:01:29;17.50;99.90
11772;DHT22;12556;55.748;13.194;2023-06-24T06:03:57;17.70;99.90
11772;DHT22;12556;55.748;13.194;2023-06-24T06:06:24;17.80;99.90
11772;DHT22;12556;55.748;13.194;2023-06-24T06:08:51;17.80;99.90
11772;DHT22;12556;55.748;13.194;2023-06-24T06:11:17;18.00;99.90
11772;DHT22;12556;55.748;13.194;2023-06-24T06:13:44;18.10;99.90
11772;DHT22;12556;55.748;13.194;2023-06-24T06:16:11;18.30;99.90
11772;DHT22;12556;55.748;13.194;2023-06-24T06:18:38;18.50;99.90
11772;DHT22;12556;55.748;13.194;2023-06-24T06:21:06;18.60;99.90
11772;DHT22;12556;55.748;13.194;2023-06-24T06:23:33;18.70;99.90
11772;DHT22;12556;55.748;13.194;2023-06-24T06:26:00;18.80;99.90
11772;DHT22;12556;55.748;13.194;2023-06-24T06:28:27;18.80;99.90
11772;DHT22;12556;55.748;13.194;2023-06-24T06:30:54;18.90;99.90
11772;DHT22;12556;55.748;13.194;2023-06-24T06:33:22;18.90;99.90
11772;DHT22;12556;55.748;13.194;2023-06-24T06:35:49;19.00;99.90
11772;DHT22;12556;55.748;13.194;2023-06-24T06:38:17;19.00;99.90
11772;DHT22;12556;55.748;13.194;2023-06-24T06:40:44;19.10;99.90
11772;DHT22;12556;55.748;13.194;2023-06-24T06:43:13;19.20;99.90
11772;DHT22;12556;55.748;13.194;2023-06-24T06:45:40;19.20;99.90
11772;DHT22;12556;55.748;13.194;2023-06-24T06:48:07;19.30;99.90
11772;DHT22;12556;55.748;13.194;2023-06-24T06:50:34;19.50;99.90
11772;DHT22;12556;55.748;13.194;2023-06-24T06:53:01;19.60;99.90
11772;DHT22;12556;55.748;13.194;2023-06-24T06:55:29;19.70;99.90
11772;DHT22;12556;55.748;13.194;2023-06-24T06:57:56;19.80;99.90
11772;DHT22;12556;55.748;13.194;2023-06-24T07:00:23;19.80;99.90
11772;DHT22;12556;55.748;13.194;2023-06-24T07:02:50;19.80;99.90
11772;DHT22;12556;55.748;13.194;2023-06-24T07:05:17;19.90;99.90
11772;DHT22;12556;55.748;13.194;2023-06-24T07:07:44;20.10;99.90
11772;DHT22;12556;55.748;13.194;2023-06-24T07:10:11;20.40;99.90
11772;DHT22;12556;55.748;13.194;2023-06-24T07:12:40;20.60;99.90
11772;DHT22;12556;55.748;13.194;2023-06-24T07:15:07;20.80;99.90
11772;DHT22;12556;55.748;13.194;2023-06-24T07:17:35;21.00;99.90
11772;DHT22;12556;55.748;13.194;2023-06-24T07:20:02;21.20;99.90
11772;DHT22;12556;55.748;13.194;2023-06-24T07:22:29;21.40;99.90
11772;DHT22;12556;55.748;13.194;2023-06-24T07:24:56;21.60;99.90
11772;DHT22;12556;55.748;13.194;2023-06-24T07:27:23;21.70;99.90
11772;DHT22;12556;55.748;13.194;2023-06-24T07:29:51;21.90;99.90
11772;DHT22;12556;55.748;13.194;2023-06-24T07:32:18;22.20;99.90
11772;DHT22;12556;55.748;13.194;2023-06-24T07:34:45;22.30;99.90
11772;DHT22;12556;55.748;13.194;2023-06-24T07:37:11;22.60;99.90
11772;DHT22;12556;55.748;13.194;2023-06-24T07:39:39;22.90;99.80
11772;DHT22;12556;55.748;13.194;2023-06-24T07:42:06;23.10;99.30
11772;DHT22;12556;55.748;13.194;2023-06-24T07:44:33;23.10;99.20
11772;DHT22;12556;55.748;13.194;2023-06-24T07:47:03;23.10;98.90
11772;DHT22;12556;55.748;13.194;2023-06-24T07:49:30;23.20;98.50
11772;DHT22;12556;55.748;13.194;2023-06-24T07:51:57;23.10;98.20
11772;DHT22;12556;55.748;13.194;2023-06-24T07:54:24;23.30;98.30
11772;DHT22;12556;55.748;13.194;2023-06-24T07:56:50;23.50;97.70
11772;DHT22;12556;55.748;13.194;2023-06-24T07:59:17;23.40;97.40
11772;DHT22;12556;55.748;13.194;2023-06-24T08:01:44;23.50;97.40
11772;DHT22;12556;55.748;13.194;2023-06-24T08:04:13;23.70;97.30
11772;DHT22;12556;55.748;13.194;2023-06-24T08:06:40;23.80;97.20
11772;DHT22;12556;55.748;13.194;2023-06-24T08:09:07;23.80;96.90
11772;DHT22;12556;55.748;13.194;2023-06-24T08:11:33;24.00;96.80
11772;DHT22;12556;55.748;13.194;2023-06-24T08:14:01;24.10;96.30
11772;DHT22;12556;55.748;13.194;2023-06-24T08:16:29;24.30;96.00
11772;DHT22;12556;55.748;13.194;2023-06-24T08:18:55;24.30;95.60
11772;DHT22;12556;55.748;13.194;2023-06-24T08:21:24;24.40;95.60
11772;DHT22;12556;55.748;13.194;2023-06-24T08:23:51;24.60;95.60
11772;DHT22;12556;55.748;13.194;2023-06-24T08:26:19;24.70;95.50
11772;DHT22;12556;55.748;13.194;2023-06-24T08:28:46;24.70;95.30
11772;DHT22;12556;55.748;13.194;2023-06-24T08:31:14;24.60;94.90
11772;DHT22;12556;55.748;13.194;2023-06-24T08:33:43;24.50;94.70
11772;DHT22;12556;55.748;13.194;2023-06-24T08:36:10;24.50;94.70
11772;DHT22;12556;55.748;13.194;2023-06-24T08:38:38;24.70;95.10
11772;DHT22;12556;55.748;13.194;2023-06-24T08:41:05;25.10;94.60
11772;DHT22;12556;55.748;13.194;2023-06-24T08:43:32;25.20;94.20
11772;DHT22;12556;55.748;13.194;2023-06-24T08:45:59;25.30;93.90
11772;DHT22;12556;55.748;13.194;2023-06-24T08:48:27;25.30;93.70
11772;DHT22;12556;55.748;13.194;2023-06-24T08:50:58;25.50;93.50
11772;DHT22;12556;55.748;13.194;2023-06-24T08:53:27;25.70;93.50
11772;DHT22;12556;55.748;13.194;2023-06-24T08:55:56;25.80;93.60
11772;DHT22;12556;55.748;13.194;2023-06-24T08:58:24;26.00;92.90
11772;DHT22;12556;55.748;13.194;2023-06-24T09:00:51;26.00;92.30
11772;DHT22;12556;55.748;13.194;2023-06-24T09:03:18;25.90;92.60
11772;DHT22;12556;55.748;13.194;2023-06-24T09:05:45;26.20;92.40
11772;DHT22;12556;55.748;13.194;2023-06-24T09:08:11;26.40;91.80
11772;DHT22;12556;55.748;13.194;2023-06-24T09:10:38;26.40;91.20
11772;DHT22;12556;55.748;13.194;2023-06-24T09:13:07;26.50;91.70
11772;DHT22;12556;55.748;13.194;2023-06-24T09:15:35;26.30;91.00
11772;DHT22;12556;55.748;13.194;2023-06-24T09:18:03;26.20;91.00
11772;DHT22;12556;55.748;13.194;2023-06-24T09:20:31;25.90;90.90
11772;DHT22;12556;55.748;13.194;2023-06-24T09:22:59;25.80;90.90
11772;DHT22;12556;55.748;13.194;2023-06-24T09:25:26;25.80;90.90
11772;DHT22;12556;55.748;13.194;2023-06-24T09:27:53;26.00;90.60
11772;DHT22;12556;55.748;13.194;2023-06-24T09:30:23;26.00;90.30
11772;DHT22;12556;55.748;13.194;2023-06-24T09:32:51;26.00;90.10
11772;DHT22;12556;55.748;13.194;2023-06-24T09:35:19;25.90;90.10
11772;DHT22;12556;55.748;13.194;2023-06-24T09:37:50;26.10;90.00
11772;DHT22;12556;55.748;13.194;2023-06-24T09:40:17;26.30;89.50
11772;DHT22;12556;55.748;13.194;2023-06-24T09:42:51;26.40;89.10
11772;DHT22;12556;55.748;13.194;2023-06-24T09:45:26;26.70;88.40
11772;DHT22;12556;55.748;13.194;2023-06-24T09:47:54;27.00;88.00
11772;DHT22;12556;55.748;13.194;2023-06-24T09:50:21;27.00;86.80
11772;DHT22;12556;55.748;13.194;2023-06-24T09:52:49;26.90;86.20
11772;DHT22;12556;55.748;13.194;2023-06-24T09:55:18;26.70;85.90
11772;DHT22;12556;55.748;13.194;2023-06-24T09:57:46;26.80;86.10
11772;DHT22;12556;55.748;13.194;2023-06-24T10:00:15;27.00;85.30
11772;DHT22;12556;55.748;13.194;2023-06-24T10:02:44;27.00;84.60
11772;DHT22;12556;55.748;13.194;2023-06-24T10:05:12;27.20;84.60
11772;DHT22;12556;55.748;13.194;2023-06-24T10:07:40;27.40;83.30
11772;DHT22;12556;55.748;13.194;2023-06-24T10:10:08;27.40;82.50
11772;DHT22;12556;55.748;13.194;2023-06-24T10:12:35;27.40;82.40
11772;DHT22;12556;55.748;13.194;2023-06-24T10:15:03;27.40;81.70
11772;DHT22;12556;55.748;13.194;2023-06-24T10:17:30;27.60;81.70
11772;DHT22;12556;55.748;13.194;2023-06-24T10:20:03;27.70;80.70
11772;DHT22;12556;55.748;13.194;2023-06-24T10:22:31;27.50;80.30
11772;DHT22;12556;55.748;13.194;2023-06-24T10:25:00;27.30;81.50
11772;DHT22;12556;55.748;13.194;2023-06-24T10:27:28;27.60;81.40
11772;DHT22;12556;55.748;13.194;2023-06-24T10:30:02;27.80;79.90
11772;DHT22;12556;55.748;13.194;2023-06-24T10:32:39;27.80;78.90
11772;DHT22;12556;55.748;13.194;2023-06-24T10:35:22;27.60;79.30
11772;DHT22;12556;55.748;13.194;2023-06-24T10:37:54;27.60;79.50
11772;DHT22;12556;55.748;13.194;2023-06-24T10:40:34;27.70;78.90
11772;DHT22;12556;55.748;13.194;2023-06-24T10:43:02;27.70;78.90
11772;DHT22;12556;55.748;13.194;2023-06-24T10:45:29;27.70;77.90
11772;DHT22;12556;55.748;13.194;2023-06-24T10:47:56;27.80;76.90
11772;DHT22;12556;55.748;13.194;2023-06-24T10:50:26;27.90;76.30
11772;DHT22;12556;55.748;13.194;2023-06-24T10:52:53;27.90;76.90
11772;DHT22;12556;55.748;13.194;2023-06-24T10:55:23;28.20;77.20
11772;DHT22;12556;55.748;13.194;2023-06-24T10:57:50;28.50;76.20
11772;DHT22;12556;55.748;13.194;2023-06-24T11:00:19;28.50;75.80
11772;DHT22;12556;55.748;13.194;2023-06-24T11:02:46;28.40;75.40
11772;DHT22;12556;55.748;13.194;2023-06-24T11:05:13;28.40;75.30
11772;DHT22;12556;55.748;13.194;2023-06-24T11:07:41;28.40;74.40
11772;DHT22;12556;55.748;13.194;2023-06-24T11:10:11;28.30;74.80
11772;DHT22;12556;55.748;13.194;2023-06-24T11:12:39;28.50;74.50
11772;DHT22;12556;55.748;13.194;2023-06-24T11:15:07;28.50;73.90
11772;DHT22;12556;55.748;13.194;2023-06-24T11:17:35;28.80;73.40
11772;DHT22;12556;55.748;13.194;2023-06-24T11:20:07;29.30;73.40
11772;DHT22;12556;55.748;13.194;2023-06-24T11:22:34;29.50;71.20
11772;DHT22;12556;55.748;13.194;2023-06-24T11:25:03;29.30;70.20
11772;DHT22;12556;55.748;13.194;2023-06-24T11:27:31;29.40;70.70
11772;DHT22;12556;55.748;13.194;2023-06-24T11:29:59;29.60;70.70
11772;DHT22;12556;55.748;13.194;2023-06-24T11:32:35;29.70;69.50
11772;DHT22;12556;55.748;13.194;2023-06-24T11:35:04;30.00;68.10
11772;DHT22;12556;55.748;13.194;2023-06-24T11:37:32;29.90;67.30
11772;DHT22;12556;55.748;13.194;2023-06-24T11:40:05;29.90;67.40
11772;DHT22;12556;55.748;13.194;2023-06-24T11:42:32;29.80;66.00
11772;DHT22;12556;55.748;13.194;2023-06-24T11:45:00;29.70;66.40
11772;DHT22;12556;55.748;13.194;2023-06-24T11:47:31;29.70;64.80
11772;DHT22;12556;55.748;13.194;2023-06-24T11:49:58;29.50;63.60
11772;DHT22;12556;55.748;13.194;2023-06-24T11:52:41;29.40;64.10
11772;DHT22;12556;55.748;13.194;2023-06-24T11:55:16;29.20;63.80
11772;DHT22;12556;55.748;13.194;2023-06-24T11:57:49;29.30;64.20
11772;DHT22;12556;55.748;13.194;2023-06-24T12:00:17;29.20;63.80
11772;DHT22;12556;55.748;13.194;2023-06-24T12:02:45;29.30;64.10
11772;DHT22;12556;55.748;13.194;2023-06-24T12:05:12;29.70;63.20
11772;DHT22;12556;55.748;13.194;2023-06-24T12:07:39;29.90;62.40
11772;DHT22;12556;55.748;13.194;2023-06-24T12:10:08;30.10;62.00
11772;DHT22;12556;55.748;13.194;2023-06-24T12:12:36;30.10;62.10
11772;DHT22;12556;55.748;13.194;2023-06-24T12:15:04;30.10;61.30
11772;DHT22;12556;55.748;13.194;2023-06-24T12:17:31;30.00;61.80
11772;DHT22;12556;55.748;13.194;2023-06-24T12:19:58;30.00;62.10
11772;DHT22;12556;55.748;13.194;2023-06-24T12:22:25;29.80;61.50
11772;DHT22;12556;55.748;13.194;2023-06-24T12:24:52;29.70;61.60
11772;DHT22;12556;55.748;13.194;2023-06-24T12:27:19;29.70;61.60
11772;DHT22;12556;55.748;13.194;2023-06-24T12:29:48;29.40;61.50
11772;DHT22;12556;55.748;13.194;2023-06-24T12:32:15;29.40;63.10
11772;DHT22;12556;55.748;13.194;2023-06-24T12:34:42;29.30;62.60
11772;DHT22;12556;55.748;13.194;2023-06-24T12:37:09;29.20;62.90
11772;DHT22;12556;55.748;13.194;2023-06-24T12:39:36;29.30;63.00
11772;DHT22;12556;55.748;13.194;2023-06-24T12:42:03;29.20;62.10
11772;DHT22;12556;55.748;13.194;2023-06-24T12:44:31;28.90;62.50
11772;DHT22;12556;55.748;13.194;2023-06-24T12:46:59;28.70;62.40
11772;DHT22;12556;55.748;13.194;2023-06-24T12:49:26;28.50;62.70
11772;DHT22;12556;55.748;13.194;2023-06-24T12:51:53;28.60;63.00
11772;DHT22;12556;55.748;13.194;2023-06-24T12:54:20;29.00;63.00
11772;DHT22;12556;55.748;13.194;2023-06-24T12:56:47;29.10;62.60
11772;DHT22;12556;55.748;13.194;2023-06-24T12:59:13;29.40;62.80
11772;DHT22;12556;55.748;13.194;2023-06-24T13:01:40;29.50;62.30
11772;DHT22;12556;55.748;13.194;2023-06-24T13:04:11;29.30;62.90
11772;DHT22;12556;55.748;13.194;2023-06-24T13:06:38;29.20;62.90
11772;DHT22;12556;55.748;13.194;2023-06-24T13:09:06;28.90;62.20
11772;DHT22;12556;55.748;13.194;2023-06-24T13:11:33;28.50;62.80
11772;DHT22;12556;55.748;13.194;2023-06-24T13:14:00;28.10;63.50
11772;DHT22;12556;55.748;13.194;2023-06-24T13:16:26;28.20;62.40
11772;DHT22;12556;55.748;13.194;2023-06-24T13:18:53;28.30;61.90
11772;DHT22;12556;55.748;13.194;2023-06-24T13:21:22;28.30;61.70
11772;DHT22;12556;55.748;13.194;2023-06-24T13:23:48;28.50;62.20
11772;DHT22;12556;55.748;13.194;2023-06-24T13:26:15;28.50;62.60
11772;DHT22;12556;55.748;13.194;2023-06-24T13:28:42;28.60;62.20
11772;DHT22;12556;55.748;13.194;2023-06-24T13:31:09;28.50;62.00
11772;DHT22;12556;55.748;13.194;2023-06-24T13:33:36;28.70;62.30
11772;DHT22;12556;55.748;13.194;2023-06-24T13:36:05;28.60;61.80
11772;DHT22;12556;55.748;13.194;2023-06-24T13:38:34;28.80;61.00
11772;DHT22;12556;55.748;13.194;2023-06-24T13:41:01;28.90;61.80
11772;DHT22;12556;55.748;13.194;2023-06-24T13:43:28;28.90;62.00
11772;DHT22;12556;55.748;13.194;2023-06-24T13:45:55;29.00;62.30
11772;DHT22;12556;55.748;13.194;2023-06-24T13:48:23;29.10;61.70
11772;DHT22;12556;55.748;13.194;2023-06-24T13:50:50;29.00;62.10
11772;DHT22;12556;55.748;13.194;2023-06-24T13:53:17;29.00;62.10
11772;DHT22;12556;55.748;13.194;2023-06-24T13:55:45;29.00;62.10
11772;DHT22;12556;55.748;13.194;2023-06-24T13:58:12;29.10;62.50
11772;DHT22;12556;55.748;13.194;2023-06-24T14:00:38;28.90;62.60
11772;DHT22;12556;55.748;13.194;2023-06-24T14:03:06;29.00;63.40
11772;DHT22;12556;55.748;13.194;2023-06-24T14:05:32;29.30;62.80
11772;DHT22;12556;55.748;13.194;2023-06-24T14:07:59;29.50;61.60
11772;DHT22;12556;55.748;13.194;2023-06-24T14:10:26;29.50;60.90
11772;DHT22;12556;55.748;13.194;2023-06-24T14:12:55;29.50;60.30
11772;DHT22;12556;55.748;13.194;2023-06-24T14:15:21;29.50;60.30
11772;DHT22;12556;55.748;13.194;2023-06-24T14:17:49;29.60;59.70
11772;DHT22;12556;55.748;13.194;2023-06-24T14:20:16;29.70;60.20
11772;DHT22;12556;55.748;13.194;2023-06-24T14:22:42;29.80;60.20
11772;DHT22;12556;55.748;13.194;2023-06-24T14:25:10;29.60;60.90
11772;DHT22;12556;55.748;13.194;2023-06-24T14:27:37;29.60;61.40
11772;DHT22;12556;55.748;13.194;2023-06-24T14:30:06;29.40;60.80
11772;DHT22;12556;55.748;13.194;2023-06-24T14:32:33;29.10;61.10
11772;DHT22;12556;55.748;13.194;2023-06-24T14:35:00;28.80;62.10
11772;DHT22;12556;55.748;13.194;2023-06-24T14:37:27;28.80;62.60
11772;DHT22;12556;55.748;13.194;2023-06-24T14:39:54;28.50;62.40
11772;DHT22;12556;55.748;13.194;2023-06-24T14:42:21;28.20;62.30
11772;DHT22;12556;55.748;13.194;2023-06-24T14:44:47;28.20;62.10
11772;DHT22;12556;55.748;13.194;2023-06-24T14:47:16;28.30;61.80
11772;DHT22;12556;55.748;13.194;2023-06-24T14:49:43;28.40;61.10
11772;DHT22;12556;55.748;13.194;2023-06-24T14:52:10;28.50;60.80
11772;DHT22;12556;55.748;13.194;2023-06-24T14:54:36;28.60;60.80
11772;DHT22;12556;55.748;13.194;2023-06-24T14:57:04;28.60;61.10
11772;DHT22;12556;55.748;13.194;2023-06-24T14:59:30;28.70;61.20
11772;DHT22;12556;55.748;13.194;2023-06-24T15:01:57;28.80;62.00
11772;DHT22;12556;55.748;13.194;2023-06-24T15:04:26;28.90;61.10
11772;DHT22;12556;55.748;13.194;2023-06-24T15:06:52;28.90;61.00
11772;DHT22;12556;55.748;13.194;2023-06-24T15:09:19;28.80;60.90
11772;DHT22;12556;55.748;13.194;2023-06-24T15:11:46;28.80;60.50
11772;DHT22;12556;55.748;13.194;2023-06-24T15:14:13;28.60;60.60
11772;DHT22;12556;55.748;13.194;2023-06-24T15:16:40;28.60;61.30
11772;DHT22;12556;55.748;13.194;2023-06-24T15:19:07;28.70;60.20
11772;DHT22;12556;55.748;13.194;2023-06-24T15:21:35;28.70;60.00
11772;DHT22;12556;55.748;13.194;2023-06-24T15:24:03;28.50;59.90